Laytonsville, Maryland
Current Conditions -  °F | °C
As of 5:35 PM on Thursday 23 Oct 2014 (Local Time) from KGAI Reporting Station
Overcast Overcast  
Wind Chill: 61°   Ceiling: 5000
Heat Index: 61°   Visibility: 10mi
Dew Point: 43°   Wind: 13mph
Humidity: 52%   Direction: 320°NW
Pressure: 29.89"   Gusts: 21mph
Location:  39.2308°N, 77.143°W
Report Text: KGAI 232135Z 32011G18KT 10SM OVC050 16/06 A2989 RMK AO1
Loading
Personal Weather Stations






























Interactive Weather Map
Tropical Storm Tracking
New forecast layout! Learn more

10-Day Weather Forecast

Advertisements
Track Severe Weather on mobile